Time;durP1;ratioP1;P1;durP2;ratioP2;P2;SDS_P1;SDS_P2;PMS_P1;PMS_P2;Temp;Humidity;BMP_temperature;BMP_pressure;BME280_temperature;BME280_humidity;BME280_pressure;Samples;Min_cycle;Max_cycle;Signal;HPM_P1;HPM_P2
2023/07/05 00:00:45;;;;;;;0.38;0.38;;;15.20;99.90;;;;;;5046068;28;20044;-76
2023/07/05 00:03:10;;;;;;;0.40;0.40;;;15.00;99.90;;;;;;5051586;28;20052;-77
2023/07/05 00:05:37;;;;;;;1.17;1.02;;;15.10;99.90;;;;;;5040623;28;20037;-76
2023/07/05 00:08:04;;;;;;;0.80;0.80;;;15.10;99.90;;;;;;5037453;28;20047;-76
2023/07/05 00:10:30;;;;;;;0.70;0.70;;;14.80;99.90;;;;;;5049766;28;20128;-76
2023/07/05 00:12:56;;;;;;;1.15;1.15;;;15.00;99.90;;;;;;5044258;28;20131;-76
2023/07/05 00:15:21;;;;;;;0.60;0.60;;;15.10;99.90;;;;;;5044440;28;20132;-76
2023/07/05 00:17:47;;;;;;;1.15;1.15;;;15.20;99.90;;;;;;5054129;28;20041;-76
2023/07/05 00:20:13;;;;;;;0.90;0.90;;;15.00;99.90;;;;;;5050310;28;20037;-76
2023/07/05 00:22:39;;;;;;;0.60;0.60;;;15.00;99.90;;;;;;5059084;28;20048;-76
2023/07/05 00:25:05;;;;;;;1.17;1.10;;;15.00;99.90;;;;;;5047568;28;20053;-76
2023/07/05 00:27:31;;;;;;;0.80;0.80;;;14.80;99.90;;;;;;5047273;28;20099;-76
2023/07/05 00:29:56;;;;;;;2.13;1.92;;;15.00;99.90;;;;;;5047391;28;20124;-76
2023/07/05 00:32:22;;;;;;;4.65;2.45;;;14.80;99.90;;;;;;5042616;28;20108;-76
2023/07/05 00:34:48;;;;;;;1.13;1.13;;;14.90;99.90;;;;;;5048995;28;20151;-76
2023/07/05 00:37:14;;;;;;;1.73;1.63;;;15.00;99.90;;;;;;5044152;28;20097;-76
2023/07/05 00:39:39;;;;;;;1.55;1.50;;;14.80;99.90;;;;;;5055433;28;20147;-76
2023/07/05 00:42:05;;;;;;;0.77;0.77;;;14.80;99.90;;;;;;5044027;28;20080;-76
2023/07/05 00:44:32;;;;;;;1.05;1.05;;;14.80;99.90;;;;;;5044324;28;20136;-76
2023/07/05 00:47:03;;;;;;;0.98;0.98;;;14.70;99.90;;;;;;5052207;28;20075;-76
2023/07/05 00:49:32;;;;;;;1.77;1.67;;;14.80;99.90;;;;;;5046186;28;20041;-76
2023/07/05 00:52:05;;;;;;;1.13;1.13;;;14.80;99.90;;;;;;5048881;28;20050;-76
2023/07/05 00:54:35;;;;;;;1.90;1.52;;;14.90;99.90;;;;;;5050274;28;20431;-76
2023/07/05 00:57:24;;;;;;;2.40;1.85;;;14.80;99.90;;;;;;5036774;28;20120;-75
2023/07/05 01:00:07;;;;;;;1.58;1.48;;;14.90;99.90;;;;;;5046953;28;20052;-76
2023/07/05 01:02:32;;;;;;;0.98;0.93;;;14.80;99.90;;;;;;5049487;28;20048;-76
2023/07/05 01:05:00;;;;;;;0.95;0.95;;;14.70;99.90;;;;;;5043710;28;20386;-76
2023/07/05 01:07:26;;;;;;;1.95;1.80;;;14.90;99.90;;;;;;5042507;28;20053;-76
2023/07/05 01:09:52;;;;;;;4.00;1.83;;;14.70;99.90;;;;;;5038128;28;20383;-76
2023/07/05 01:12:25;;;;;;;2.60;1.25;;;14.80;99.90;;;;;;5032275;28;20041;-75
2023/07/05 01:15:01;;;;;;;3.40;1.50;;;14.90;99.90;;;;;;5050322;28;20480;-76
2023/07/05 01:17:36;;;;;;;1.90;1.80;;;15.00;99.90;;;;;;5047859;28;20049;-76
2023/07/05 01:20:29;;;;;;;3.10;2.65;;;14.80;99.90;;;;;;5050693;28;20048;-76
2023/07/05 01:23:04;;;;;;;3.97;2.17;;;14.90;99.90;;;;;;5049790;28;20133;-75
2023/07/05 01:25:52;;;;;;;1.15;1.15;;;14.80;99.90;;;;;;5051680;28;20068;-75
2023/07/05 01:28:46;;;;;;;;;;;14.70;99.90;;;;;;5049342;28;20489;-76
2023/07/05 01:31:36;;;;;;;2.65;2.45;;;14.80;99.90;;;;;;5023281;28;19966;-75
2023/07/05 01:34:26;;;;;;;1.25;1.08;;;14.70;99.90;;;;;;5050577;28;20053;-76
2023/07/05 01:36:52;;;;;;;0.82;0.82;;;14.80;99.90;;;;;;5047674;28;20456;-75
2023/07/05 01:39:17;;;;;;;1.13;0.80;;;15.10;99.90;;;;;;5048924;28;20094;-75
2023/07/05 01:41:43;;;;;;;1.15;1.15;;;14.90;99.90;;;;;;5046560;28;20045;-75
2023/07/05 01:44:12;;;;;;;1.08;1.08;;;14.80;99.90;;;;;;5051849;28;20041;-75
2023/07/05 01:46:47;;;;;;;0.85;0.85;;;14.90;99.90;;;;;;5050268;28;20040;-75
2023/07/05 01:49:36;;;;;;;1.58;0.90;;;14.90;99.90;;;;;;5050397;28;20481;-76
2023/07/05 01:52:14;;;;;;;0.73;0.60;;;15.00;99.90;;;;;;5042787;28;20044;-76
2023/07/05 01:55:02;;;;;;;;;;;14.80;99.90;;;;;;5044793;28;20049;-76
2023/07/05 01:57:33;;;;;;;1.25;1.25;;;14.90;99.90;;;;;;5056874;28;20443;-75
2023/07/05 02:00:07;;;;;;;1.63;1.25;;;14.90;99.90;;;;;;5049610;28;20107;-75
2023/07/05 02:02:38;;;;;;;3.38;2.17;;;14.80;99.90;;;;;;5046407;28;20049;-74
2023/07/05 02:05:06;;;;;;;3.53;3.22;;;14.60;99.90;;;;;;5046519;28;20518;-75
2023/07/05 02:07:33;;;;;;;3.53;2.95;;;14.50;99.90;;;;;;5054962;28;20044;-74
2023/07/05 02:09:59;;;;;;;1.33;1.23;;;14.70;99.90;;;;;;5027447;28;20088;-74
2023/07/05 02:12:25;;;;;;;2.50;1.83;;;14.70;99.90;;;;;;5049523;28;20457;-75
2023/07/05 02:14:51;;;;;;;2.72;2.53;;;14.80;99.90;;;;;;5026434;28;20048;-75
2023/07/05 02:17:19;;;;;;;2.67;1.90;;;14.80;99.90;;;;;;5050949;28;20041;-74
2023/07/05 02:19:45;;;;;;;2.72;1.70;;;14.70;99.90;;;;;;5045304;28;20043;-75
2023/07/05 02:22:11;;;;;;;1.98;1.88;;;14.80;99.90;;;;;;5049023;28;20180;-76
2023/07/05 02:24:37;;;;;;;1.40;1.40;;;14.60;99.90;;;;;;5064543;28;20119;-75
2023/07/05 02:27:02;;;;;;;2.17;2.00;;;14.40;99.90;;;;;;5042690;28;20040;-75
2023/07/05 02:29:30;;;;;;;1.33;1.25;;;14.60;99.90;;;;;;5050873;28;20124;-75
2023/07/05 02:31:57;;;;;;;1.30;1.30;;;14.50;99.90;;;;;;5047951;28;20040;-75
2023/07/05 02:34:22;;;;;;;2.58;1.23;;;14.40;99.90;;;;;;5050958;28;20122;-75
2023/07/05 02:36:48;;;;;;;7.38;2.03;;;14.70;99.90;;;;;;5055793;28;20489;-75
2023/07/05 02:39:13;;;;;;;2.15;1.98;;;14.60;99.90;;;;;;5051814;28;20441;-75
2023/07/05 02:41:39;;;;;;;1.25;1.15;;;14.70;99.90;;;;;;5040217;28;20202;-75
2023/07/05 02:44:05;;;;;;;1.52;1.45;;;14.80;99.90;;;;;;5041770;28;20088;-75
2023/07/05 02:46:31;;;;;;;1.73;1.63;;;14.80;99.90;;;;;;5049991;28;20045;-75
2023/07/05 02:48:57;;;;;;;1.77;1.65;;;14.50;99.90;;;;;;5056698;28;20045;-75
2023/07/05 02:51:29;;;;;;;2.08;1.63;;;14.50;99.90;;;;;;5055781;28;20493;-76
2023/07/05 02:53:55;;;;;;;1.30;1.23;;;14.50;99.90;;;;;;5041545;28;20037;-75
2023/07/05 02:56:21;;;;;;;1.40;1.30;;;14.60;99.90;;;;;;5038959;28;20061;-76
2023/07/05 02:58:47;;;;;;;4.97;2.58;;;14.40;99.90;;;;;;5050637;28;20040;-76
2023/07/05 03:01:13;;;;;;;1.52;1.10;;;14.40;99.90;;;;;;5048237;28;20520;-75
2023/07/05 03:03:38;;;;;;;0.95;0.75;;;14.40;99.90;;;;;;5060482;28;20063;-76
2023/07/05 03:06:04;;;;;;;0.65;0.65;;;14.50;99.90;;;;;;5052455;28;20508;-75
2023/07/05 03:08:30;;;;;;;2.65;1.95;;;14.70;99.90;;;;;;5051367;28;20067;-75
2023/07/05 03:10:59;;;;;;;2.85;1.98;;;14.70;99.90;;;;;;5040541;28;20129;-75
2023/07/05 03:13:28;;;;;;;1.83;1.73;;;14.70;99.90;;;;;;5049868;28;20052;-75
2023/07/05 03:15:53;;;;;;;0.75;0.75;;;14.50;99.90;;;;;;5047764;28;20115;-74
2023/07/05 03:18:19;;;;;;;1.60;1.17;;;14.50;99.90;;;;;;5051611;28;20397;-75
2023/07/05 03:20:46;;;;;;;4.53;2.05;;;14.50;99.90;;;;;;5042661;28;20111;-75
2023/07/05 03:23:12;;;;;;;1.45;1.35;;;14.50;99.90;;;;;;5054440;28;20566;-75
2023/07/05 03:25:38;;;;;;;1.75;1.65;;;14.50;99.90;;;;;;5044061;28;20041;-75
2023/07/05 03:28:04;;;;;;;1.90;1.42;;;14.40;99.90;;;;;;5045658;28;20053;-75
2023/07/05 03:30:30;;;;;;;2.60;1.88;;;14.50;99.90;;;;;;5048095;28;20043;-75
2023/07/05 03:32:56;;;;;;;1.63;1.52;;;14.60;99.90;;;;;;5048112;28;20478;-76
2023/07/05 03:35:22;;;;;;;0.70;0.70;;;14.70;99.90;;;;;;5049092;28;20132;-75
2023/07/05 03:37:47;;;;;;;2.10;1.83;;;14.40;99.90;;;;;;5054930;28;20045;-75
2023/07/05 03:40:13;;;;;;;2.88;1.48;;;14.50;99.90;;;;;;5052570;28;20037;-75
2023/07/05 03:42:38;;;;;;;0.55;0.55;;;14.50;99.90;;;;;;5043219;28;20554;-75
2023/07/05 03:45:05;;;;;;;0.50;0.50;;;14.90;99.90;;;;;;5054111;28;20493;-75
2023/07/05 03:47:30;;;;;;;0.73;0.73;;;14.60;99.90;;;;;;5039778;28;20052;-75
2023/07/05 03:49:56;;;;;;;0.77;0.77;;;14.90;99.90;;;;;;5050142;28;20049;-75
2023/07/05 03:52:22;;;;;;;1.10;1.08;;;14.60;99.90;;;;;;5048767;28;20045;-76
2023/07/05 03:54:48;;;;;;;0.38;0.38;;;14.70;99.90;;;;;;5061048;28;20460;-76
2023/07/05 03:57:14;;;;;;;0.60;0.60;;;14.60;99.90;;;;;;5047611;28;20052;-75
2023/07/05 03:59:40;;;;;;;1.85;1.35;;;14.90;99.90;;;;;;5047590;28;20099;-75
2023/07/05 04:02:05;;;;;;;0.88;0.88;;;14.80;99.90;;;;;;5043318;28;20056;-75
2023/07/05 04:04:31;;;;;;;3.35;2.83;;;14.70;99.90;;;;;;5041236;28;20051;-75
2023/07/05 04:06:57;;;;;;;0.70;0.70;;;14.70;99.90;;;;;;5050837;28;20119;-75
2023/07/05 04:09:24;;;;;;;1.50;0.98;;;14.70;99.90;;;;;;5044087;28;20041;-75
2023/07/05 04:11:50;;;;;;;1.08;1.08;;;14.80;99.90;;;;;;5045883;28;20433;-76
2023/07/05 04:14:16;;;;;;;3.08;2.88;;;15.30;99.90;;;;;;5049554;28;20478;-75
2023/07/05 04:16:41;;;;;;;2.80;2.20;;;14.90;99.90;;;;;;5041014;28;20044;-75
2023/07/05 04:19:09;;;;;;;1.15;0.95;;;15.20;99.90;;;;;;5047988;28;20052;-76
2023/07/05 04:21:34;;;;;;;1.58;1.48;;;14.90;99.90;;;;;;5048019;28;20052;-76
2023/07/05 04:24:00;;;;;;;2.28;2.08;;;15.20;99.90;;;;;;5044860;28;20055;-75
2023/07/05 04:26:28;;;;;;;3.10;1.95;;;15.40;99.90;;;;;;5051468;28;20041;-76
2023/07/05 04:28:54;;;;;;;2.65;1.48;;;15.30;99.90;;;;;;5039537;28;20126;-76
2023/07/05 04:31:24;;;;;;;2.63;2.28;;;15.30;99.90;;;;;;5045504;28;20052;-76
2023/07/05 04:33:50;;;;;;;1.48;1.42;;;15.40;99.90;;;;;;5043584;28;20106;-75
2023/07/05 04:36:16;;;;;;;1.23;0.95;;;15.50;99.90;;;;;;5051794;28;20399;-76
2023/07/05 04:38:42;;;;;;;1.63;1.30;;;15.40;99.90;;;;;;5046052;28;20044;-76
2023/07/05 04:41:09;;;;;;;1.67;1.58;;;15.30;99.90;;;;;;5047393;28;20128;-76
2023/07/05 04:43:34;;;;;;;1.98;1.88;;;15.20;99.90;;;;;;5049027;28;20045;-76
2023/07/05 04:46:00;;;;;;;0.85;0.80;;;15.70;99.90;;;;;;5052470;28;20057;-77
2023/07/05 04:48:29;;;;;;;2.38;1.65;;;15.30;99.90;;;;;;5046924;28;20049;-77
2023/07/05 04:50:55;;;;;;;1.73;1.63;;;15.20;99.90;;;;;;5041419;28;20049;-76
2023/07/05 04:53:22;;;;;;;1.05;1.05;;;15.60;99.90;;;;;;5046257;28;20048;-76
2023/07/05 04:55:50;;;;;;;3.85;1.75;;;15.30;99.90;;;;;;5048707;28;20402;-76
2023/07/05 04:58:16;;;;;;;1.23;1.15;;;15.30;99.90;;;;;;5048466;28;20512;-76
2023/07/05 05:00:46;;;;;;;0.65;0.65;;;15.40;99.90;;;;;;5052873;28;20041;-77
2023/07/05 05:03:13;;;;;;;1.45;1.35;;;15.40;99.90;;;;;;5048666;28;20413;-76
2023/07/05 05:05:41;;;;;;;1.35;1.00;;;15.10;99.90;;;;;;5064718;28;20045;-76
2023/07/05 05:08:06;;;;;;;1.65;1.08;;;15.30;99.90;;;;;;5049149;28;20160;-75
2023/07/05 05:10:34;;;;;;;0.77;0.77;;;15.20;99.90;;;;;;5061661;28;20436;-76
2023/07/05 05:13:00;;;;;;;;;;;14.90;99.90;;;;;;5054851;28;20537;-75
2023/07/05 05:15:25;;;;;;;1.60;1.52;;;15.20;99.90;;;;;;5048743;28;19931;-77
2023/07/05 05:17:51;;;;;;;1.52;1.48;;;14.80;99.90;;;;;;5052967;28;20367;-76
2023/07/05 05:20:17;;;;;;;0.60;0.60;;;14.60;99.90;;;;;;5051532;28;20045;-76
2023/07/05 05:22:42;;;;;;;1.50;0.77;;;14.80;99.90;;;;;;5055819;28;20547;-75
2023/07/05 05:25:08;;;;;;;1.42;1.33;;;14.80;99.90;;;;;;5056284;28;20092;-76
2023/07/05 05:27:34;;;;;;;0.55;0.55;;;14.70;99.90;;;;;;5047861;28;20040;-76
2023/07/05 05:29:59;;;;;;;1.05;1.02;;;14.80;99.90;;;;;;5031269;28;20052;-77
2023/07/05 05:32:25;;;;;;;1.02;1.02;;;14.50;99.90;;;;;;5055163;28;20045;-76
2023/07/05 05:34:50;;;;;;;1.10;1.10;;;14.30;99.90;;;;;;5059094;28;20386;-76
2023/07/05 05:37:16;;;;;;;1.60;1.35;;;14.40;99.90;;;;;;5043406;28;20034;-76
2023/07/05 05:39:42;;;;;;;2.88;1.80;;;14.30;99.90;;;;;;5055494;28;20041;-76
2023/07/05 05:42:08;;;;;;;1.08;1.08;;;14.40;99.90;;;;;;5045655;28;20049;-76
2023/07/05 05:44:34;;;;;;;2.28;1.48;;;14.20;99.90;;;;;;5047786;28;20406;-75
2023/07/05 05:46:59;;;;;;;2.40;1.27;;;14.20;99.90;;;;;;5042208;28;20087;-76
2023/07/05 05:49:25;;;;;;;1.05;1.05;;;14.40;99.90;;;;;;5053253;28;20493;-76
2023/07/05 05:51:50;;;;;;;2.15;1.23;;;14.40;99.90;;;;;;5060917;28;20048;-76
2023/07/05 05:54:16;;;;;;;2.15;1.23;;;14.50;99.90;;;;;;5054120;28;20444;-77
2023/07/05 05:56:41;;;;;;;0.90;0.90;;;14.60;99.90;;;;;;5054022;28;20047;-76
2023/07/05 05:59:07;;;;;;;2.53;1.38;;;14.70;99.90;;;;;;5047769;28;20167;-76
2023/07/05 06:01:33;;;;;;;2.92;1.45;;;14.60;99.90;;;;;;5046478;28;20569;-76
2023/07/05 06:03:58;;;;;;;1.75;1.65;;;14.50;99.90;;;;;;5052822;28;20051;-76
2023/07/05 06:06:24;;;;;;;0.77;0.77;;;14.70;99.90;;;;;;5052495;28;20470;-76
2023/07/05 06:08:49;;;;;;;1.05;1.02;;;14.50;99.90;;;;;;5051275;28;20378;-76
2023/07/05 06:11:15;;;;;;;1.65;1.55;;;14.70;99.90;;;;;;5046649;28;20037;-76
2023/07/05 06:13:42;;;;;;;2.53;1.40;;;14.50;99.90;;;;;;5054900;28;20188;-75
2023/07/05 06:16:07;;;;;;;0.95;0.95;;;14.90;99.90;;;;;;5041221;28;20120;-76
2023/07/05 06:18:33;;;;;;;0.77;0.57;;;14.90;99.90;;;;;;5042665;28;20042;-75
2023/07/05 06:20:59;;;;;;;0.95;0.95;;;14.80;99.90;;;;;;5056082;28;20134;-76
2023/07/05 06:23:24;;;;;;;1.42;1.00;;;14.70;99.90;;;;;;5053170;28;20502;-75
2023/07/05 06:25:50;;;;;;;1.15;1.05;;;14.60;99.90;;;;;;5049423;28;20053;-76
2023/07/05 06:28:17;;;;;;;1.33;1.30;;;14.70;99.90;;;;;;5041056;28;20049;-76
2023/07/05 06:30:44;;;;;;;1.65;1.48;;;14.70;99.90;;;;;;5041070;28;20064;-75
2023/07/05 06:33:10;;;;;;;1.30;1.20;;;14.90;99.90;;;;;;5045408;28;20052;-74
2023/07/05 06:35:36;;;;;;;1.65;1.55;;;14.70;99.90;;;;;;5048950;28;20037;-76
2023/07/05 06:38:02;;;;;;;0.88;0.88;;;15.20;99.90;;;;;;5044320;28;20051;-76
2023/07/05 06:40:28;;;;;;;4.05;2.10;;;15.20;99.90;;;;;;5050190;28;20052;-75
2023/07/05 06:42:54;;;;;;;1.38;1.33;;;15.20;99.90;;;;;;5047464;28;20045;-78
2023/07/05 06:45:20;;;;;;;2.42;2.20;;;15.30;99.90;;;;;;5055463;28;20048;-76
2023/07/05 06:47:46;;;;;;;3.40;2.25;;;15.70;99.90;;;;;;5057708;28;20106;-75
2023/07/05 06:50:12;;;;;;;4.28;1.88;;;15.80;99.90;;;;;;5047440;28;20101;-75
2023/07/05 06:52:38;;;;;;;1.40;1.00;;;15.90;99.90;;;;;;5049405;28;20131;-75
2023/07/05 06:55:05;;;;;;;1.20;1.10;;;16.00;99.90;;;;;;5058110;28;20542;-75
2023/07/05 06:57:31;;;;;;;0.75;0.75;;;16.10;99.90;;;;;;5047157;28;20042;-76
2023/07/05 06:59:56;;;;;;;2.28;2.08;;;16.20;99.90;;;;;;5049729;28;20904;-75
2023/07/05 07:02:22;;;;;;;1.30;1.20;;;16.40;99.90;;;;;;5051480;28;20513;-75
2023/07/05 07:04:48;;;;;;;0.98;0.98;;;16.80;99.90;;;;;;5055298;28;20051;-76
2023/07/05 07:07:13;;;;;;;2.95;1.05;;;16.80;99.90;;;;;;5051584;28;20051;-74
2023/07/05 07:09:40;;;;;;;1.77;1.50;;;17.10;99.90;;;;;;5051657;28;20048;-75
2023/07/05 07:12:07;;;;;;;1.63;1.53;;;17.10;99.90;;;;;;5043946;28;20045;-75
2023/07/05 07:14:33;;;;;;;2.25;1.55;;;17.30;99.90;;;;;;5055444;28;20283;-75
2023/07/05 07:16:59;;;;;;;0.47;0.47;;;17.20;99.90;;;;;;5052726;28;20138;-76
2023/07/05 07:19:25;;;;;;;1.67;1.58;;;17.10;99.90;;;;;;5050556;28;20065;-75
2023/07/05 07:21:51;;;;;;;1.90;1.75;;;16.80;99.90;;;;;;5052528;28;20446;-76
2023/07/05 07:24:16;;;;;;;1.85;1.55;;;16.90;99.90;;;;;;5043538;28;20409;-75
2023/07/05 07:26:42;;;;;;;1.88;1.15;;;16.50;99.90;;;;;;5056834;28;20047;-75
2023/07/05 07:29:10;;;;;;;2.72;2.15;;;16.40;99.90;;;;;;5053966;28;20457;-75
2023/07/05 07:31:36;;;;;;;1.83;1.73;;;16.60;99.90;;;;;;5044151;28;20045;-75
2023/07/05 07:34:05;;;;;;;0.55;0.55;;;16.30;99.90;;;;;;5048109;28;20849;-74
2023/07/05 07:36:32;;;;;;;3.83;1.55;;;16.30;99.90;;;;;;5046426;28;20048;-74
2023/07/05 07:38:59;;;;;;;0.95;0.95;;;16.20;99.90;;;;;;5039199;28;20052;-74
2023/07/05 07:41:42;;;;;;;1.25;1.15;;;15.90;99.90;;;;;;5049941;28;20392;-75
2023/07/05 07:44:11;;;;;;;1.13;1.02;;;15.90;99.90;;;;;;5044128;28;20037;-75
2023/07/05 07:46:37;;;;;;;;;;;15.70;99.90;;;;;;5042659;28;20119;-74
2023/07/05 07:49:05;;;;;;;0.63;0.63;;;15.50;99.90;;;;;;5055222;28;19948;-74
2023/07/05 07:51:34;;;;;;;0.88;0.88;;;15.50;99.90;;;;;;5050171;28;20063;-74
2023/07/05 07:54:00;;;;;;;0.95;0.95;;;15.20;99.90;;;;;;5048644;28;20038;-75
2023/07/05 07:56:29;;;;;;;2.40;2.05;;;15.00;99.90;;;;;;5038052;28;20128;-73
2023/07/05 07:58:57;;;;;;;1.23;1.13;;;15.10;99.90;;;;;;5045788;28;20116;-74
2023/07/05 08:01:23;;;;;;;2.42;1.15;;;15.10;99.90;;;;;;5053472;28;20099;-74
2023/07/05 08:03:49;;;;;;;1.15;1.05;;;14.90;99.90;;;;;;5053367;28;20432;-75
2023/07/05 08:06:16;;;;;;;0.52;0.52;;;14.80;99.90;;;;;;5053001;28;20037;-75
2023/07/05 08:08:42;;;;;;;1.60;1.20;;;14.60;99.90;;;;;;5040309;28;20083;-74
2023/07/05 08:11:09;;;;;;;1.45;1.35;;;14.80;99.90;;;;;;5024364;28;20044;-74
2023/07/05 08:13:36;;;;;;;1.35;1.25;;;14.40;99.90;;;;;;5047334;28;20155;-74
2023/07/05 08:16:02;;;;;;;0.40;0.40;;;14.10;99.90;;;;;;5051207;28;20050;-74
2023/07/05 08:18:29;;;;;;;0.95;0.85;;;14.20;99.90;;;;;;5051387;28;20045;-74
2023/07/05 08:20:56;;;;;;;0.68;0.68;;;14.00;99.90;;;;;;5045821;28;20071;-74
2023/07/05 08:23:22;;;;;;;0.47;0.47;;;13.90;99.90;;;;;;5053921;28;20055;-73
2023/07/05 08:25:55;;;;;;;1.27;1.20;;;13.90;99.90;;;;;;5055736;28;20049;-74
2023/07/05 08:28:29;;;;;;;3.03;1.38;;;14.00;99.90;;;;;;5042943;28;20505;-75
2023/07/05 08:30:58;;;;;;;1.15;0.80;;;13.80;99.90;;;;;;5043066;28;20052;-74
2023/07/05 08:33:26;;;;;;;0.30;0.30;;;13.70;99.90;;;;;;5048551;28;20069;-74
2023/07/05 08:36:07;;;;;;;0.80;0.80;;;13.70;99.90;;;;;;5042636;28;20061;-73
2023/07/05 08:38:33;;;;;;;0.50;0.50;;;13.60;99.90;;;;;;5044355;28;20081;-75
2023/07/05 08:41:13;;;;;;;1.38;0.85;;;13.60;99.90;;;;;;5042027;28;20199;-74
2023/07/05 08:44:05;;;;;;;0.30;0.30;;;13.40;99.90;;;;;;5046358;28;20105;-74
2023/07/05 08:46:32;;;;;;;0.30;0.30;;;13.30;99.90;;;;;;5056110;28;20077;-73
2023/07/05 08:49:09;;;;;;;0.40;0.40;;;13.40;99.90;;;;;;5039245;28;20037;-73
2023/07/05 08:51:36;;;;;;;0.50;0.50;;;13.30;99.90;;;;;;5043954;28;20045;-74
2023/07/05 08:54:04;;;;;;;0.52;0.52;;;13.30;99.90;;;;;;5050421;28;20477;-74
2023/07/05 08:56:38;;;;;;;4.55;0.70;;;13.40;99.90;;;;;;5036537;28;20501;-74
2023/07/05 08:59:10;;;;;;;0.57;0.57;;;13.20;99.90;;;;;;5044573;28;20201;-74
2023/07/05 09:01:40;;;;;;;1.20;1.00;;;13.30;99.90;;;;;;5040866;28;20488;-74
2023/07/05 09:04:27;;;;;;;1.15;0.82;;;13.00;99.90;;;;;;5039779;28;20049;-73
2023/07/05 09:07:13;;;;;;;0.40;0.40;;;13.30;99.90;;;;;;5039954;28;20044;-74
2023/07/05 09:10:07;;;;;;;0.40;0.40;;;12.90;99.90;;;;;;5037634;28;20394;-73
2023/07/05 09:13:08;;;;;;;1.08;1.08;;;13.00;99.90;;;;;;5054406;28;20076;-73
2023/07/05 09:15:44;;;;;;;0.57;0.57;;;13.00;99.90;;;;;;5045808;28;20041;-74
2023/07/05 09:18:48;;;;;;;0.70;0.70;;;12.70;99.90;;;;;;5042433;28;20044;-74
2023/07/05 09:21:34;;;;;;;1.20;1.10;;;12.90;99.90;;;;;;5041277;28;20401;-75
2023/07/05 09:24:22;;;;;;;0.90;0.60;;;12.80;99.90;;;;;;5055380;28;20052;-74
2023/07/05 09:26:57;;;;;;;0.60;0.60;;;12.70;99.90;;;;;;5042235;28;20060;-75
2023/07/05 09:29:46;;;;;;;2.38;1.63;;;12.70;99.90;;;;;;5045406;28;20087;-74
2023/07/05 09:32:17;;;;;;;0.85;0.85;;;12.80;99.90;;;;;;5043785;28;20048;-75
2023/07/05 09:34:50;;;;;;;0.50;0.50;;;12.90;99.90;;;;;;5041957;28;20049;-72
2023/07/05 09:37:19;;;;;;;0.65;0.65;;;13.00;99.90;;;;;;5043689;28;20045;-74
2023/07/05 09:40:15;;;;;;;0.80;0.80;;;12.90;99.90;;;;;;5048428;28;20029;-75
2023/07/05 09:43:27;;;;;;;0.50;0.50;;;12.90;99.90;;;;;;5049097;28;20117;-74
2023/07/05 09:45:52;;;;;;;1.08;1.02;;;12.80;99.90;;;;;;5040030;28;20052;-73
2023/07/05 09:48:19;;;;;;;1.23;1.13;;;12.90;99.90;;;;;;5046264;28;20045;-75
2023/07/05 09:50:51;;;;;;;0.75;0.75;;;12.60;99.90;;;;;;5058626;28;20489;-74
2023/07/05 09:53:40;;;;;;;0.50;0.50;;;12.60;99.90;;;;;;5055188;28;20052;-75
2023/07/05 09:56:12;;;;;;;1.38;1.30;;;12.60;99.90;;;;;;5049022;28;20523;-73
2023/07/05 09:58:39;;;;;;;0.50;0.50;;;12.70;99.90;;;;;;5032239;28;20167;-74
2023/07/05 10:01:11;;;;;;;0.60;0.60;;;12.70;99.90;;;;;;5048537;28;20053;-74
2023/07/05 10:03:47;;;;;;;0.52;0.52;;;12.70;99.90;;;;;;5051770;28;20478;-75
2023/07/05 10:06:18;;;;;;;0.52;0.52;;;12.90;99.90;;;;;;5050505;28;20086;-74
2023/07/05 10:08:50;;;;;;;0.60;0.60;;;12.80;99.90;;;;;;5049983;28;20044;-73
2023/07/05 10:11:24;;;;;;;0.75;0.75;;;12.80;99.90;;;;;;5060802;28;20040;-74
2023/07/05 10:14:17;;;;;;;0.70;0.70;;;12.80;99.90;;;;;;5046919;28;20056;-74
2023/07/05 10:16:48;;;;;;;3.88;1.20;;;12.90;99.90;;;;;;5039776;28;20087;-73
2023/07/05 10:19:30;;;;;;;0.60;0.60;;;12.90;99.90;;;;;;5043898;28;20135;-74
2023/07/05 10:22:15;;;;;;;0.88;0.88;;;12.90;99.90;;;;;;5054885;28;20053;-74
2023/07/05 10:24:50;;;;;;;0.40;0.40;;;13.20;99.90;;;;;;5051127;28;20139;-74
2023/07/05 10:27:19;;;;;;;0.40;0.40;;;12.90;99.90;;;;;;5046724;28;20535;-75
2023/07/05 10:29:48;;;;;;;5.88;0.85;;;13.10;99.90;;;;;;5047902;28;20053;-75
2023/07/05 10:32:18;;;;;;;0.88;0.82;;;13.30;99.90;;;;;;5048072;28;20052;-75
2023/07/05 10:34:48;;;;;;;2.47;1.48;;;13.20;99.90;;;;;;5050714;28;20056;-75
2023/07/05 10:37:30;;;;;;;0.50;0.50;;;13.50;99.90;;;;;;5052404;28;20540;-76
2023/07/05 10:39:56;;;;;;;0.50;0.50;;;13.30;99.90;;;;;;5046691;28;20044;-76
2023/07/05 10:42:24;;;;;;;1.02;1.00;;;13.20;99.90;;;;;;5049088;28;20052;-75
2023/07/05 10:44:50;;;;;;;1.35;1.00;;;13.40;99.90;;;;;;5048074;28;20509;-76
2023/07/05 10:47:17;;;;;;;0.73;0.73;;;13.30;99.90;;;;;;5036603;28;20053;-76
2023/07/05 10:49:44;;;;;;;0.30;0.30;;;13.30;99.90;;;;;;5050772;28;20076;-75
2023/07/05 10:52:15;;;;;;;0.35;0.35;;;13.40;99.90;;;;;;5039963;28;20045;-76
2023/07/05 10:54:59;;;;;;;1.10;1.10;;;13.40;99.90;;;;;;5050214;28;20049;-76
2023/07/05 10:57:40;;;;;;;0.50;0.50;;;13.10;99.90;;;;;;5045703;28;20048;-76
2023/07/05 11:00:19;;;;;;;1.17;0.82;;;13.30;99.90;;;;;;5046758;28;20049;-76
2023/07/05 11:02:49;;;;;;;0.73;0.70;;;13.30;99.90;;;;;;5050636;28;20479;-75
2023/07/05 11:05:35;;;;;;;0.85;0.85;;;13.40;99.90;;;;;;5051617;28;20037;-76
2023/07/05 11:08:04;;;;;;;0.80;0.80;;;13.40;99.90;;;;;;5049422;28;20414;-76
2023/07/05 11:10:38;;;;;;;1.05;0.93;;;13.50;99.90;;;;;;5041389;28;20084;-76
2023/07/05 11:13:06;;;;;;;0.55;0.55;;;13.60;99.90;;;;;;5044836;28;20077;-76
2023/07/05 11:15:32;;;;;;;1.08;1.08;;;13.40;99.90;;;;;;5055371;28;20472;-77
2023/07/05 11:17:59;;;;;;;1.75;1.65;;;13.60;99.90;;;;;;5052825;28;20059;-76
2023/07/05 11:21:09;;;;;;;1.05;1.05;;;13.60;99.90;;;;;;5038031;28;20036;-76
2023/07/05 11:23:41;;;;;;;0.95;0.95;;;13.70;99.90;;;;;;5045162;28;20091;-76
2023/07/05 11:26:08;;;;;;;3.40;1.40;;;14.00;99.90;;;;;;5055070;28;20497;-76
2023/07/05 11:28:35;;;;;;;0.57;0.57;;;14.00;99.90;;;;;;5052947;28;20378;-75
2023/07/05 11:31:02;;;;;;;1.00;1.00;;;14.00;99.90;;;;;;5054496;28;20048;-75
2023/07/05 11:33:28;;;;;;;0.73;0.73;;;14.10;99.90;;;;;;5046109;28;20056;-77
2023/07/05 11:35:57;;;;;;;0.82;0.82;;;14.00;99.90;;;;;;5037948;28;20049;-75
2023/07/05 11:38:40;;;;;;;;;;;14.00;99.90;;;;;;5050536;28;20131;-76
2023/07/05 11:41:25;;;;;;;0.57;0.57;;;13.90;99.90;;;;;;5054250;28;20464;-75
2023/07/05 11:44:18;;;;;;;1.70;1.58;;;13.60;99.90;;;;;;5044267;28;20056;-74
2023/07/05 11:46:45;;;;;;;1.08;1.08;;;13.60;99.90;;;;;;5036842;28;20033;-75
2023/07/05 11:49:20;;;;;;;1.58;1.48;;;13.50;99.90;;;;;;5049446;28;20124;-74
2023/07/05 11:51:49;;;;;;;0.77;0.77;;;13.30;99.90;;;;;;5037965;28;20422;-76
2023/07/05 11:54:17;;;;;;;0.38;0.38;;;13.40;99.90;;;;;;5049974;28;20775;-75
2023/07/05 11:56:45;;;;;;;1.05;1.05;;;13.20;99.90;;;;;;5043245;28;20114;-75
2023/07/05 11:59:15;;;;;;;0.50;0.50;;;13.30;99.90;;;;;;5055554;28;20533;-76
2023/07/05 12:01:42;;;;;;;0.88;0.88;;;13.20;99.90;;;;;;5043063;28;20090;-75
2023/07/05 12:04:13;;;;;;;1.08;0.80;;;13.20;99.90;;;;;;5050719;28;20056;-74
2023/07/05 12:06:41;;;;;;;0.40;0.40;;;13.10;99.90;;;;;;5050212;28;20049;-75
2023/07/05 12:09:19;;;;;;;0.47;0.47;;;13.10;99.90;;;;;;5047757;28;20094;-75
2023/07/05 12:11:53;;;;;;;1.13;1.00;;;12.90;99.90;;;;;;5045819;28;20098;-74
2023/07/05 12:14:18;;;;;;;0.68;0.68;;;12.80;99.90;;;;;;5042353;28;20049;-75
2023/07/05 12:16:45;;;;;;;1.02;1.00;;;13.00;99.90;;;;;;5041346;28;20555;-73
2023/07/05 12:19:30;;;;;;;0.55;0.55;;;12.90;99.90;;;;;;5044884;28;20047;-75
2023/07/05 12:22:05;;;;;;;0.60;0.60;;;;;;;;;;5044080;28;20072;-75
2023/07/05 12:24:44;;;;;;;1.02;1.02;;;13.00;99.90;;;;;;5040464;28;21200;-74
2023/07/05 12:27:24;;;;;;;0.80;0.80;;;12.80;99.90;;;;;;5041086;28;20050;-73
2023/07/05 12:30:00;;;;;;;2.58;1.98;;;12.80;99.90;;;;;;5043202;28;20049;-73
2023/07/05 12:32:28;;;;;;;1.10;1.00;;;12.90;99.90;;;;;;5039538;28;20045;-73
2023/07/05 12:35:20;;;;;;;0.63;0.63;;;12.90;99.90;;;;;;5044102;28;20061;-73
2023/07/05 12:37:54;;;;;;;0.90;0.90;;;13.00;99.90;;;;;;5036995;28;20091;-73
2023/07/05 12:40:27;;;;;;;0.93;0.93;;;13.00;99.90;;;;;;5048896;28;20049;-73
2023/07/05 12:42:56;;;;;;;0.43;0.43;;;13.00;99.90;;;;;;5045080;28;20148;-74
2023/07/05 12:45:36;;;;;;;0.65;0.65;;;13.20;99.90;;;;;;5044738;28;20402;-74
2023/07/05 12:48:34;;;;;;;0.50;0.50;;;13.10;99.90;;;;;;5049192;28;20055;-74
2023/07/05 12:51:10;;;;;;;0.82;0.82;;;13.30;99.90;;;;;;5005506;28;20057;-74
2023/07/05 12:53:36;;;;;;;0.50;0.50;;;13.40;99.90;;;;;;5030655;28;20040;-73
2023/07/05 12:56:05;;;;;;;0.85;0.85;;;13.50;99.90;;;;;;5045231;28;20040;-75
2023/07/05 12:58:31;;;;;;;1.40;1.30;;;13.40;99.90;;;;;;5054595;28;20045;-74
2023/07/05 13:00:59;;;;;;;0.77;0.77;;;13.60;99.90;;;;;;5046056;28;20155;-75
2023/07/05 13:03:27;;;;;;;0.90;0.90;;;13.50;99.90;;;;;;5045225;28;20049;-75